La Fireboat 5 — WL2490 — position and weather

sailwx.info

Track history (hours):
 
Tides and Currents Weather Stations Pressure Air Temp Water Temp Dewpoint Dewpoint Depression Visibility Wind Speed Wind Dir Waves Ship Positions

La Fireboat 5

Last reported at 2017-Oct-12 16:27 UTC. Time now 2017-Oct-19 22:06 UTC.
Position N 33°44' W 118°23'.

MMSI: 338093828.

Date/timePositionNaut miles runAvg speedWind from/ knotsBaromVisibWave heightAir tempDewpointWater temp
2017-Oct-12 16:27N 33°44' W 118°23'5 0.1
2017-Oct-10 18:30N 33°43' W 118°17'0 0.0
2017-Oct-10 18:01N 33°43' W 118°17'0 0.0
2017-Oct-10 17:30N 33°43' W 118°17'0 0.0
2017-Oct-10 17:00N 33°43' W 118°17'0 0.0
2017-Oct-10 16:30N 33°43' W 118°17'0 0.0
2017-Oct-08 23:38N 33°43' W 118°16'1 7.4
2017-Oct-08 23:30N 33°44' W 118°17'2 0.8
2017-Oct-08 20:43N 33°46' W 118°15'1 6.5
2017-Oct-08 20:30N 33°45' W 118°16'2 0.1
2017-Oct-08 00:19N 33°43' W 118°17'1 4.3
2017-Oct-08 00:00N 33°44' W 118°17'2 0.5
2017-Oct-07 19:58N 33°46' W 118°15'3 7.0
2017-Oct-07 19:30N 33°43' W 118°16'0 0.0
2017-Oct-06 22:24N 33°43' W 118°17'0 0.0
2017-Oct-06 19:16N 33°43' W 118°17'1 4.4
2017-Oct-06 19:00N 33°44' W 118°17'2 1.7
2017-Oct-06 17:46N 33°46' W 118°15'0 0.2
2017-Oct-06 17:30N 33°46' W 118°15'0 0.0
2017-Oct-06 15:33N 33°46' W 118°15'0 3.3
2017-Oct-06 15:30N 33°46' W 118°15'3 6.1
2017-Oct-06 15:00N 33°43' W 118°17'0 0.2
2017-Oct-06 14:30N 33°43' W 118°17'0 0.0
2017-Oct-06 13:19N 33°43' W 118°17'0 0.0
2017-Oct-05 00:32N 33°43' W 118°17'0 0.1
2017-Oct-05 00:29N 33°43' W 118°17'0 0.0
2017-Oct-05 00:00N 33°43' W 118°17'0 0.0
2017-Oct-04 23:03N 33°43' W 118°17'0 4.9
2017-Oct-04 23:00N 33°43' W 118°17'2 3.3
2017-Oct-04 22:30N 33°43' W 118°15'3 6.5
2017-Oct-04 22:00N 33°46' W 118°13'0 0.0
2017-Oct-04 21:30N 33°46' W 118°13'0 0.0
2017-Oct-04 21:00N 33°46' W 118°13'0 0.0
2017-Oct-03 17:32N 33°46' W 118°13'0 0.0
2017-Oct-03 17:30N 33°46' W 118°13'4 7.9
2017-Oct-03 17:00N 33°43' W 118°16'1 0.9
2017-Oct-03 16:01N 33°43' W 118°17'0 0.5
2017-Oct-03 16:00N 33°43' W 118°17'  
Track history (hours):
 
Tides and Currents Weather Stations Pressure Air Temp Water Temp Dewpoint Dewpoint Depression Visibility Wind Speed Wind Dir Waves Ship Positions

La Fireboat 5

Last reported at 2017-Oct-12 16:27 UTC. Time now 2017-Oct-19 22:06 UTC.
Position N 33°44' W 118°23'.

MMSI: 338093828.

Date/timePositionNaut miles runAvg speedWind from/ knotsBaromVisibWave heightAir tempDewpointWater temp
2017-Oct-12 16:27N 33°44' W 118°23'5 0.1
2017-Oct-10 18:30N 33°43' W 118°17'0 0.0
2017-Oct-10 18:01N 33°43' W 118°17'0 0.0
2017-Oct-10 17:30N 33°43' W 118°17'0 0.0
2017-Oct-10 17:00N 33°43' W 118°17'0 0.0
2017-Oct-10 16:30N 33°43' W 118°17'0 0.0
2017-Oct-08 23:38N 33°43' W 118°16'1 7.4
2017-Oct-08 23:30N 33°44' W 118°17'2 0.8
2017-Oct-08 20:43N 33°46' W 118°15'1 6.5
2017-Oct-08 20:30N 33°45' W 118°16'2 0.1
2017-Oct-08 00:19N 33°43' W 118°17'1 4.3
2017-Oct-08 00:00N 33°44' W 118°17'2 0.5
2017-Oct-07 19:58N 33°46' W 118°15'3 7.0
2017-Oct-07 19:30N 33°43' W 118°16'0 0.0
2017-Oct-06 22:24N 33°43' W 118°17'0 0.0
2017-Oct-06 19:16N 33°43' W 118°17'1 4.4
2017-Oct-06 19:00N 33°44' W 118°17'2 1.7
2017-Oct-06 17:46N 33°46' W 118°15'0 0.2
2017-Oct-06 17:30N 33°46' W 118°15'0 0.0
2017-Oct-06 15:33N 33°46' W 118°15'0 3.3
2017-Oct-06 15:30N 33°46' W 118°15'3 6.1
2017-Oct-06 15:00N 33°43' W 118°17'0 0.2
2017-Oct-06 14:30N 33°43' W 118°17'0 0.0
2017-Oct-06 13:19N 33°43' W 118°17'0 0.0
2017-Oct-05 00:32N 33°43' W 118°17'0 0.1
2017-Oct-05 00:29N 33°43' W 118°17'0 0.0
2017-Oct-05 00:00N 33°43' W 118°17'0 0.0
2017-Oct-04 23:03N 33°43' W 118°17'0 4.9
2017-Oct-04 23:00N 33°43' W 118°17'2 3.3
2017-Oct-04 22:30N 33°43' W 118°15'3 6.5
2017-Oct-04 22:00N 33°46' W 118°13'0 0.0
2017-Oct-04 21:30N 33°46' W 118°13'0 0.0
2017-Oct-04 21:00N 33°46' W 118°13'0 0.0
2017-Oct-03 17:32N 33°46' W 118°13'0 0.0
2017-Oct-03 17:30N 33°46' W 118°13'4 7.9
2017-Oct-03 17:00N 33°43' W 118°16'1 0.9
2017-Oct-03 16:01N 33°43' W 118°17'0 0.5
2017-Oct-03 16:00N 33°43' W 118°17'  

Dump ship's entire track history